sensor_id;sensor_type;location;lat;lon;timestamp;P1;durP1;ratioP1;P2;durP2;ratioP2
12784;SDS011;6456;42.680;23.260;2022-09-09T00:00:05;12.67;;;7.87;;
12784;SDS011;6456;42.680;23.260;2022-09-09T00:02:38;9.00;;;8.10;;
12784;SDS011;6456;42.680;23.260;2022-09-09T00:05:12;9.17;;;8.30;;
12784;SDS011;6456;42.680;23.260;2022-09-09T00:07:45;9.10;;;8.20;;
12784;SDS011;6456;42.680;23.260;2022-09-09T00:10:16;8.80;;;8.00;;
12784;SDS011;6456;42.680;23.260;2022-09-09T00:12:53;10.07;;;8.23;;
12784;SDS011;6456;42.680;23.260;2022-09-09T00:15:28;10.50;;;8.23;;
12784;SDS011;6456;42.680;23.260;2022-09-09T00:18:09;9.30;;;8.50;;
12784;SDS011;6456;42.680;23.260;2022-09-09T00:20:45;8.40;;;7.60;;
12784;SDS011;6456;42.680;23.260;2022-09-09T00:23:20;8.90;;;8.00;;
12784;SDS011;6456;42.680;23.260;2022-09-09T00:25:53;8.80;;;8.00;;
12784;SDS011;6456;42.680;23.260;2022-09-09T00:28:26;9.33;;;8.00;;
12784;SDS011;6456;42.680;23.260;2022-09-09T00:31:00;8.53;;;7.73;;
12784;SDS011;6456;42.680;23.260;2022-09-09T00:33:35;9.77;;;8.10;;
12784;SDS011;6456;42.680;23.260;2022-09-09T00:36:07;9.67;;;7.63;;
12784;SDS011;6456;42.680;23.260;2022-09-09T00:38:42;10.57;;;8.30;;
12784;SDS011;6456;42.680;23.260;2022-09-09T00:41:13;9.03;;;8.13;;
12784;SDS011;6456;42.680;23.260;2022-09-09T00:43:50;9.80;;;7.87;;
12784;SDS011;6456;42.680;23.260;2022-09-09T00:46:29;9.53;;;7.93;;
12784;SDS011;6456;42.680;23.260;2022-09-09T00:49:12;8.57;;;7.50;;
12784;SDS011;6456;42.680;23.260;2022-09-09T00:51:47;9.37;;;7.70;;
12784;SDS011;6456;42.680;23.260;2022-09-09T00:57:13;8.40;;;7.60;;
12784;SDS011;6456;42.680;23.260;2022-09-09T00:59:50;9.03;;;8.13;;
12784;SDS011;6456;42.680;23.260;2022-09-09T01:02:25;8.43;;;7.70;;
12784;SDS011;6456;42.680;23.260;2022-09-09T01:04:55;8.13;;;7.27;;
12784;SDS011;6456;42.680;23.260;2022-09-09T01:07:28;9.13;;;8.00;;
12784;SDS011;6456;42.680;23.260;2022-09-09T01:09:57;8.93;;;8.03;;
12784;SDS011;6456;42.680;23.260;2022-09-09T01:12:28;9.40;;;8.20;;
12784;SDS011;6456;42.680;23.260;2022-09-09T01:15:08;9.50;;;8.43;;
12784;SDS011;6456;42.680;23.260;2022-09-09T01:17:41;9.03;;;8.13;;
12784;SDS011;6456;42.680;23.260;2022-09-09T01:20:17;10.60;;;8.63;;
12784;SDS011;6456;42.680;23.260;2022-09-09T01:22:57;11.60;;;8.37;;
12784;SDS011;6456;42.680;23.260;2022-09-09T01:26:04;9.53;;;8.50;;
12784;SDS011;6456;42.680;23.260;2022-09-09T01:28:42;8.90;;;8.00;;
12784;SDS011;6456;42.680;23.260;2022-09-09T01:31:13;10.30;;;8.60;;
12784;SDS011;6456;42.680;23.260;2022-09-09T01:33:44;9.23;;;8.23;;
12784;SDS011;6456;42.680;23.260;2022-09-09T01:38:56;9.20;;;8.40;;
12784;SDS011;6456;42.680;23.260;2022-09-09T01:41:24;9.13;;;8.33;;
12784;SDS011;6456;42.680;23.260;2022-09-09T01:43:52;9.80;;;8.90;;
12784;SDS011;6456;42.680;23.260;2022-09-09T01:46:21;11.60;;;9.00;;
12784;SDS011;6456;42.680;23.260;2022-09-09T01:48:49;10.00;;;9.00;;
12784;SDS011;6456;42.680;23.260;2022-09-09T01:51:17;10.87;;;9.57;;
12784;SDS011;6456;42.680;23.260;2022-09-09T01:53:44;10.13;;;8.70;;
12784;SDS011;6456;42.680;23.260;2022-09-09T01:56:19;9.87;;;8.80;;
12784;SDS011;6456;42.680;23.260;2022-09-09T01:59:01;10.40;;;9.37;;
12784;SDS011;6456;42.680;23.260;2022-09-09T02:01:40;9.60;;;8.63;;
12784;SDS011;6456;42.680;23.260;2022-09-09T02:04:18;9.77;;;8.80;;
12784;SDS011;6456;42.680;23.260;2022-09-09T02:06:55;11.87;;;8.40;;
12784;SDS011;6456;42.680;23.260;2022-09-09T02:09:24;8.53;;;7.80;;
12784;SDS011;6456;42.680;23.260;2022-09-09T02:11:54;12.03;;;8.80;;
12784;SDS011;6456;42.680;23.260;2022-09-09T02:14:29;14.33;;;8.43;;
12784;SDS011;6456;42.680;23.260;2022-09-09T02:17:01;9.93;;;8.93;;
12784;SDS011;6456;42.680;23.260;2022-09-09T02:19:33;10.37;;;9.17;;
12784;SDS011;6456;42.680;23.260;2022-09-09T02:22:04;9.60;;;8.57;;
12784;SDS011;6456;42.680;23.260;2022-09-09T02:24:35;11.07;;;9.00;;
12784;SDS011;6456;42.680;23.260;2022-09-09T02:27:06;11.50;;;8.67;;
12784;SDS011;6456;42.680;23.260;2022-09-09T02:29:37;11.03;;;8.90;;
12784;SDS011;6456;42.680;23.260;2022-09-09T02:32:08;10.83;;;9.03;;
12784;SDS011;6456;42.680;23.260;2022-09-09T02:34:39;9.77;;;8.87;;
12784;SDS011;6456;42.680;23.260;2022-09-09T02:37:09;10.13;;;8.90;;
12784;SDS011;6456;42.680;23.260;2022-09-09T02:39:38;10.77;;;9.70;;
12784;SDS011;6456;42.680;23.260;2022-09-09T02:42:05;14.47;;;9.50;;
12784;SDS011;6456;42.680;23.260;2022-09-09T02:44:33;10.47;;;9.50;;
12784;SDS011;6456;42.680;23.260;2022-09-09T02:47:07;12.20;;;10.17;;
12784;SDS011;6456;42.680;23.260;2022-09-09T02:49:51;10.63;;;9.60;;
12784;SDS011;6456;42.680;23.260;2022-09-09T02:52:31;12.43;;;9.17;;
12784;SDS011;6456;42.680;23.260;2022-09-09T02:55:06;10.70;;;9.70;;
12784;SDS011;6456;42.680;23.260;2022-09-09T02:57:38;11.63;;;9.67;;
12784;SDS011;6456;42.680;23.260;2022-09-09T03:00:07;10.67;;;9.67;;
12784;SDS011;6456;42.680;23.260;2022-09-09T03:02:37;11.63;;;9.87;;
12784;SDS011;6456;42.680;23.260;2022-09-09T03:05:05;11.63;;;9.50;;
12784;SDS011;6456;42.680;23.260;2022-09-09T03:07:32;10.93;;;9.77;;
12784;SDS011;6456;42.680;23.260;2022-09-09T03:10:00;10.30;;;9.30;;
12784;SDS011;6456;42.680;23.260;2022-09-09T03:12:27;11.07;;;10.00;;
12784;SDS011;6456;42.680;23.260;2022-09-09T03:14:53;12.03;;;9.77;;
12784;SDS011;6456;42.680;23.260;2022-09-09T03:17:20;11.00;;;10.00;;
12784;SDS011;6456;42.680;23.260;2022-09-09T03:19:49;11.33;;;10.03;;
12784;SDS011;6456;42.680;23.260;2022-09-09T03:22:19;11.20;;;10.10;;
12784;SDS011;6456;42.680;23.260;2022-09-09T03:24:46;10.70;;;9.43;;
12784;SDS011;6456;42.680;23.260;2022-09-09T03:27:13;10.77;;;9.77;;
12784;SDS011;6456;42.680;23.260;2022-09-09T03:29:40;10.87;;;9.60;;
12784;SDS011;6456;42.680;23.260;2022-09-09T03:32:07;15.53;;;10.40;;
12784;SDS011;6456;42.680;23.260;2022-09-09T03:34:35;13.50;;;10.57;;
12784;SDS011;6456;42.680;23.260;2022-09-09T03:37:06;12.17;;;10.97;;
12784;SDS011;6456;42.680;23.260;2022-09-09T03:39:33;11.60;;;10.40;;
12784;SDS011;6456;42.680;23.260;2022-09-09T03:42:00;11.47;;;9.93;;
12784;SDS011;6456;42.680;23.260;2022-09-09T03:44:29;10.13;;;9.23;;
12784;SDS011;6456;42.680;23.260;2022-09-09T03:46:56;11.10;;;10.00;;
12784;SDS011;6456;42.680;23.260;2022-09-09T03:49:25;12.17;;;9.83;;
12784;SDS011;6456;42.680;23.260;2022-09-09T03:51:54;12.20;;;9.90;;
12784;SDS011;6456;42.680;23.260;2022-09-09T03:54:23;11.47;;;10.27;;
12784;SDS011;6456;42.680;23.260;2022-09-09T03:56:50;11.57;;;10.03;;
12784;SDS011;6456;42.680;23.260;2022-09-09T03:59:17;14.23;;;9.90;;
12784;SDS011;6456;42.680;23.260;2022-09-09T04:01:44;11.73;;;10.63;;
12784;SDS011;6456;42.680;23.260;2022-09-09T04:04:12;14.67;;;11.00;;
12784;SDS011;6456;42.680;23.260;2022-09-09T04:06:39;14.30;;;11.00;;
12784;SDS011;6456;42.680;23.260;2022-09-09T04:09:06;12.47;;;10.10;;
12784;SDS011;6456;42.680;23.260;2022-09-09T04:11:34;10.70;;;9.63;;
12784;SDS011;6456;42.680;23.260;2022-09-09T04:14:02;10.93;;;9.53;;
12784;SDS011;6456;42.680;23.260;2022-09-09T04:16:29;10.83;;;9.83;;
12784;SDS011;6456;42.680;23.260;2022-09-09T04:18:57;11.50;;;10.23;;
12784;SDS011;6456;42.680;23.260;2022-09-09T04:21:29;12.93;;;9.97;;
12784;SDS011;6456;42.680;23.260;2022-09-09T04:23:55;13.43;;;9.97;;
12784;SDS011;6456;42.680;23.260;2022-09-09T04:26:23;13.30;;;10.73;;
12784;SDS011;6456;42.680;23.260;2022-09-09T04:28:51;13.83;;;9.40;;
12784;SDS011;6456;42.680;23.260;2022-09-09T04:31:19;11.50;;;10.30;;
12784;SDS011;6456;42.680;23.260;2022-09-09T04:33:48;12.20;;;9.60;;
12784;SDS011;6456;42.680;23.260;2022-09-09T04:36:15;12.80;;;10.70;;
12784;SDS011;6456;42.680;23.260;2022-09-09T04:38:43;13.13;;;10.23;;
12784;SDS011;6456;42.680;23.260;2022-09-09T04:41:10;12.80;;;9.97;;
12784;SDS011;6456;42.680;23.260;2022-09-09T04:43:38;13.00;;;10.17;;
12784;SDS011;6456;42.680;23.260;2022-09-09T04:46:06;12.40;;;10.97;;
12784;SDS011;6456;42.680;23.260;2022-09-09T04:48:33;23.13;;;11.33;;
12784;SDS011;6456;42.680;23.260;2022-09-09T04:51:01;12.60;;;10.57;;
12784;SDS011;6456;42.680;23.260;2022-09-09T04:54:03;15.17;;;11.10;;
12784;SDS011;6456;42.680;23.260;2022-09-09T04:56:20;16.17;;;10.87;;
12784;SDS011;6456;42.680;23.260;2022-09-09T04:58:54;20.03;;;10.63;;
12784;SDS011;6456;42.680;23.260;2022-09-09T05:01:22;20.93;;;10.83;;
12784;SDS011;6456;42.680;23.260;2022-09-09T05:03:49;16.73;;;11.33;;
12784;SDS011;6456;42.680;23.260;2022-09-09T05:06:17;17.33;;;10.97;;
12784;SDS011;6456;42.680;23.260;2022-09-09T05:08:46;15.87;;;11.07;;
12784;SDS011;6456;42.680;23.260;2022-09-09T05:11:18;18.03;;;11.33;;
12784;SDS011;6456;42.680;23.260;2022-09-09T05:13:48;15.70;;;12.07;;
12784;SDS011;6456;42.680;23.260;2022-09-09T05:16:16;14.30;;;11.07;;
12784;SDS011;6456;42.680;23.260;2022-09-09T05:18:45;13.37;;;10.90;;
12784;SDS011;6456;42.680;23.260;2022-09-09T05:21:12;15.30;;;11.43;;
12784;SDS011;6456;42.680;23.260;2022-09-09T05:23:41;13.00;;;11.50;;
12784;SDS011;6456;42.680;23.260;2022-09-09T05:26:09;14.10;;;12.20;;
12784;SDS011;6456;42.680;23.260;2022-09-09T05:28:39;19.50;;;12.03;;
12784;SDS011;6456;42.680;23.260;2022-09-09T05:31:07;13.70;;;12.30;;
12784;SDS011;6456;42.680;23.260;2022-09-09T05:33:37;17.63;;;12.77;;
12784;SDS011;6456;42.680;23.260;2022-09-09T05:36:07;19.27;;;14.10;;
12784;SDS011;6456;42.680;23.260;2022-09-09T05:38:38;15.33;;;13.13;;
12784;SDS011;6456;42.680;23.260;2022-09-09T05:41:06;23.03;;;15.33;;
12784;SDS011;6456;42.680;23.260;2022-09-09T05:43:34;21.40;;;14.33;;
12784;SDS011;6456;42.680;23.260;2022-09-09T05:46:02;18.90;;;14.53;;
12784;SDS011;6456;42.680;23.260;2022-09-09T05:48:31;17.10;;;14.10;;
12784;SDS011;6456;42.680;23.260;2022-09-09T05:50:59;16.07;;;14.37;;
12784;SDS011;6456;42.680;23.260;2022-09-09T05:53:29;18.73;;;14.40;;
12784;SDS011;6456;42.680;23.260;2022-09-09T05:55:59;15.00;;;13.57;;
12784;SDS011;6456;42.680;23.260;2022-09-09T05:58:28;19.57;;;13.87;;
12784;SDS011;6456;42.680;23.260;2022-09-09T06:01:00;18.70;;;13.83;;
12784;SDS011;6456;42.680;23.260;2022-09-09T06:03:28;18.47;;;16.07;;
12784;SDS011;6456;42.680;23.260;2022-09-09T06:05:58;17.30;;;15.50;;
12784;SDS011;6456;42.680;23.260;2022-09-09T06:08:26;22.07;;;16.57;;
12784;SDS011;6456;42.680;23.260;2022-09-09T06:11:00;23.67;;;16.30;;
12784;SDS011;6456;42.680;23.260;2022-09-09T06:13:28;20.10;;;16.00;;
12784;SDS011;6456;42.680;23.260;2022-09-09T06:15:55;20.53;;;15.87;;
12784;SDS011;6456;42.680;23.260;2022-09-09T06:18:23;19.60;;;15.73;;
12784;SDS011;6456;42.680;23.260;2022-09-09T06:20:54;19.23;;;13.07;;
12784;SDS011;6456;42.680;23.260;2022-09-09T06:23:22;19.00;;;15.07;;
12784;SDS011;6456;42.680;23.260;2022-09-09T06:25:49;16.60;;;13.83;;
12784;SDS011;6456;42.680;23.260;2022-09-09T06:28:17;14.70;;;13.33;;
12784;SDS011;6456;42.680;23.260;2022-09-09T06:30:44;14.60;;;13.00;;
12784;SDS011;6456;42.680;23.260;2022-09-09T06:33:12;15.37;;;13.70;;
12784;SDS011;6456;42.680;23.260;2022-09-09T06:35:40;17.00;;;13.30;;
12784;SDS011;6456;42.680;23.260;2022-09-09T06:38:07;19.77;;;14.33;;
12784;SDS011;6456;42.680;23.260;2022-09-09T06:40:33;14.10;;;12.60;;
12784;SDS011;6456;42.680;23.260;2022-09-09T06:43:00;16.13;;;13.73;;
12784;SDS011;6456;42.680;23.260;2022-09-09T06:45:34;14.00;;;12.10;;
12784;SDS011;6456;42.680;23.260;2022-09-09T06:48:02;14.67;;;12.70;;
12784;SDS011;6456;42.680;23.260;2022-09-09T06:50:29;13.80;;;12.37;;
12784;SDS011;6456;42.680;23.260;2022-09-09T06:52:56;14.93;;;12.33;;
12784;SDS011;6456;42.680;23.260;2022-09-09T06:55:23;18.57;;;13.67;;
12784;SDS011;6456;42.680;23.260;2022-09-09T06:57:49;14.90;;;13.23;;
12784;SDS011;6456;42.680;23.260;2022-09-09T07:00:17;17.13;;;14.07;;
12784;SDS011;6456;42.680;23.260;2022-09-09T07:02:45;18.03;;;12.50;;
12784;SDS011;6456;42.680;23.260;2022-09-09T07:05:12;15.27;;;13.63;;
12784;SDS011;6456;42.680;23.260;2022-09-09T07:07:40;18.53;;;12.87;;
12784;SDS011;6456;42.680;23.260;2022-09-09T07:10:07;14.93;;;13.40;;
12784;SDS011;6456;42.680;23.260;2022-09-09T07:12:35;22.27;;;12.73;;
12784;SDS011;6456;42.680;23.260;2022-09-09T07:15:02;13.50;;;12.20;;
12784;SDS011;6456;42.680;23.260;2022-09-09T07:17:30;14.13;;;12.50;;
12784;SDS011;6456;42.680;23.260;2022-09-09T07:19:58;13.70;;;11.93;;
12784;SDS011;6456;42.680;23.260;2022-09-09T07:22:27;16.03;;;11.50;;
12784;SDS011;6456;42.680;23.260;2022-09-09T07:24:54;15.03;;;12.40;;
12784;SDS011;6456;42.680;23.260;2022-09-09T07:27:21;19.17;;;13.77;;
12784;SDS011;6456;42.680;23.260;2022-09-09T07:29:48;15.83;;;11.33;;
12784;SDS011;6456;42.680;23.260;2022-09-09T07:32:14;12.87;;;11.47;;
12784;SDS011;6456;42.680;23.260;2022-09-09T07:34:41;12.50;;;11.20;;
12784;SDS011;6456;42.680;23.260;2022-09-09T07:37:10;16.67;;;12.50;;
12784;SDS011;6456;42.680;23.260;2022-09-09T07:39:38;16.77;;;12.23;;
12784;SDS011;6456;42.680;23.260;2022-09-09T07:42:06;13.43;;;10.83;;
12784;SDS011;6456;42.680;23.260;2022-09-09T07:44:34;13.90;;;11.07;;
12784;SDS011;6456;42.680;23.260;2022-09-09T07:47:02;14.55;;;11.05;;
12784;SDS011;6456;42.680;23.260;2022-09-09T07:49:29;12.90;;;11.63;;
12784;SDS011;6456;42.680;23.260;2022-09-09T07:51:56;11.48;;;10.30;;
12784;SDS011;6456;42.680;23.260;2022-09-09T07:54:25;13.18;;;10.98;;
12784;SDS011;6456;42.680;23.260;2022-09-09T07:56:52;11.85;;;9.70;;
12784;SDS011;6456;42.680;23.260;2022-09-09T07:59:19;12.50;;;9.88;;
12784;SDS011;6456;42.680;23.260;2022-09-09T08:01:47;11.75;;;10.55;;
12784;SDS011;6456;42.680;23.260;2022-09-09T08:04:19;14.40;;;9.98;;
12784;SDS011;6456;42.680;23.260;2022-09-09T08:06:47;10.75;;;9.63;;
12784;SDS011;6456;42.680;23.260;2022-09-09T08:09:15;12.48;;;10.50;;
12784;SDS011;6456;42.680;23.260;2022-09-09T08:11:44;12.52;;;9.45;;
12784;SDS011;6456;42.680;23.260;2022-09-09T08:14:12;14.18;;;9.40;;
12784;SDS011;6456;42.680;23.260;2022-09-09T08:16:39;14.40;;;9.43;;
12784;SDS011;6456;42.680;23.260;2022-09-09T08:19:08;10.88;;;9.52;;
12784;SDS011;6456;42.680;23.260;2022-09-09T08:21:35;10.52;;;9.43;;
12784;SDS011;6456;42.680;23.260;2022-09-09T08:24:05;13.57;;;9.73;;
12784;SDS011;6456;42.680;23.260;2022-09-09T08:26:33;10.95;;;9.85;;
12784;SDS011;6456;42.680;23.260;2022-09-09T08:29:04;10.90;;;9.65;;
12784;SDS011;6456;42.680;23.260;2022-09-09T08:31:33;12.57;;;9.23;;
12784;SDS011;6456;42.680;23.260;2022-09-09T08:34:02;12.30;;;8.77;;
12784;SDS011;6456;42.680;23.260;2022-09-09T08:36:30;9.45;;;8.55;;
12784;SDS011;6456;42.680;23.260;2022-09-09T08:38:59;13.38;;;8.80;;
12784;SDS011;6456;42.680;23.260;2022-09-09T08:44:58;10.85;;;8.70;;
12784;SDS011;6456;42.680;23.260;2022-09-09T08:47:55;10.95;;;8.30;;
12784;SDS011;6456;42.680;23.260;2022-09-09T08:50:38;13.88;;;8.43;;
12784;SDS011;6456;42.680;23.260;2022-09-09T08:53:09;12.85;;;8.52;;
12784;SDS011;6456;42.680;23.260;2022-09-09T08:55:42;11.95;;;8.30;;
12784;SDS011;6456;42.680;23.260;2022-09-09T08:58:14;10.40;;;8.82;;
12784;SDS011;6456;42.680;23.260;2022-09-09T09:00:57;11.23;;;8.32;;
12784;SDS011;6456;42.680;23.260;2022-09-09T09:03:43;12.50;;;8.50;;
12784;SDS011;6456;42.680;23.260;2022-09-09T09:06:19;9.05;;;7.80;;
12784;SDS011;6456;42.680;23.260;2022-09-09T09:08:56;10.32;;;7.30;;
12784;SDS011;6456;42.680;23.260;2022-09-09T09:11:50;9.90;;;7.60;;
12784;SDS011;6456;42.680;23.260;2022-09-09T09:14:20;13.02;;;7.72;;
12784;SDS011;6456;42.680;23.260;2022-09-09T09:16:53;11.38;;;8.23;;
12784;SDS011;6456;42.680;23.260;2022-09-09T09:19:23;12.20;;;7.97;;
12784;SDS011;6456;42.680;23.260;2022-09-09T09:21:52;9.88;;;7.85;;
12784;SDS011;6456;42.680;23.260;2022-09-09T09:24:24;7.88;;;7.00;;
12784;SDS011;6456;42.680;23.260;2022-09-09T09:26:57;8.43;;;7.50;;
12784;SDS011;6456;42.680;23.260;2022-09-09T09:29:27;9.43;;;7.43;;
12784;SDS011;6456;42.680;23.260;2022-09-09T09:31:56;8.93;;;6.97;;
12784;SDS011;6456;42.680;23.260;2022-09-09T09:34:28;9.18;;;7.88;;
12784;SDS011;6456;42.680;23.260;2022-09-09T09:36:55;10.57;;;7.07;;
12784;SDS011;6456;42.680;23.260;2022-09-09T09:39:25;8.05;;;6.55;;
12784;SDS011;6456;42.680;23.260;2022-09-09T09:41:53;8.00;;;6.68;;
12784;SDS011;6456;42.680;23.260;2022-09-09T09:44:22;7.25;;;6.55;;
12784;SDS011;6456;42.680;23.260;2022-09-09T09:46:51;7.72;;;6.43;;
12784;SDS011;6456;42.680;23.260;2022-09-09T09:49:20;7.00;;;6.30;;
12784;SDS011;6456;42.680;23.260;2022-09-09T09:51:49;14.20;;;7.43;;
12784;SDS011;6456;42.680;23.260;2022-09-09T09:54:18;9.98;;;6.40;;
12784;SDS011;6456;42.680;23.260;2022-09-09T09:56:52;7.55;;;6.28;;
12784;SDS011;6456;42.680;23.260;2022-09-09T09:59:20;9.05;;;6.28;;
12784;SDS011;6456;42.680;23.260;2022-09-09T10:02:06;7.60;;;6.07;;
12784;SDS011;6456;42.680;23.260;2022-09-09T10:04:42;9.90;;;6.80;;
12784;SDS011;6456;42.680;23.260;2022-09-09T10:07:10;10.20;;;6.82;;
12784;SDS011;6456;42.680;23.260;2022-09-09T10:09:38;7.68;;;5.68;;
12784;SDS011;6456;42.680;23.260;2022-09-09T10:12:08;6.45;;;5.85;;
12784;SDS011;6456;42.680;23.260;2022-09-09T10:14:46;8.15;;;5.78;;
12784;SDS011;6456;42.680;23.260;2022-09-09T10:17:18;6.47;;;5.75;;
12784;SDS011;6456;42.680;23.260;2022-09-09T10:19:57;8.90;;;6.40;;
12784;SDS011;6456;42.680;23.260;2022-09-09T10:22:45;8.98;;;6.40;;
12784;SDS011;6456;42.680;23.260;2022-09-09T10:25:25;8.77;;;5.70;;
12784;SDS011;6456;42.680;23.260;2022-09-09T10:28:10;6.80;;;6.10;;
12784;SDS011;6456;42.680;23.260;2022-09-09T10:30:55;8.82;;;7.95;;
12784;SDS011;6456;42.680;23.260;2022-09-09T10:33:59;8.38;;;6.05;;
12784;SDS011;6456;42.680;23.260;2022-09-09T10:36:41;7.43;;;6.30;;
12784;SDS011;6456;42.680;23.260;2022-09-09T10:39:16;9.10;;;6.97;;
12784;SDS011;6456;42.680;23.260;2022-09-09T10:41:58;10.27;;;6.55;;
12784;SDS011;6456;42.680;23.260;2022-09-09T10:44:34;10.82;;;7.00;;
12784;SDS011;6456;42.680;23.260;2022-09-09T10:47:29;8.07;;;7.07;;
12784;SDS011;6456;42.680;23.260;2022-09-09T10:53:11;10.35;;;7.30;;
12784;SDS011;6456;42.680;23.260;2022-09-09T10:58:35;11.75;;;6.97;;
12784;SDS011;6456;42.680;23.260;2022-09-09T11:01:10;9.73;;;6.68;;
12784;SDS011;6456;42.680;23.260;2022-09-09T11:03:45;7.35;;;6.40;;
12784;SDS011;6456;42.680;23.260;2022-09-09T11:06:20;7.93;;;6.38;;
12784;SDS011;6456;42.680;23.260;2022-09-09T11:08:54;7.97;;;6.80;;
12784;SDS011;6456;42.680;23.260;2022-09-09T11:11:25;9.75;;;7.05;;
12784;SDS011;6456;42.680;23.260;2022-09-09T11:14:00;11.75;;;7.05;;
12784;SDS011;6456;42.680;23.260;2022-09-09T11:16:33;7.70;;;6.50;;
12784;SDS011;6456;42.680;23.260;2022-09-09T11:19:11;10.35;;;7.45;;
12784;SDS011;6456;42.680;23.260;2022-09-09T11:21:44;9.40;;;6.57;;
12784;SDS011;6456;42.680;23.260;2022-09-09T11:24:15;9.02;;;6.75;;
12784;SDS011;6456;42.680;23.260;2022-09-09T11:26:49;8.20;;;7.15;;
12784;SDS011;6456;42.680;23.260;2022-09-09T11:32:31;7.68;;;6.97;;
12784;SDS011;6456;42.680;23.260;2022-09-09T11:35:14;8.02;;;6.72;;
12784;SDS011;6456;42.680;23.260;2022-09-09T11:38:08;9.93;;;6.78;;
12784;SDS011;6456;42.680;23.260;2022-09-09T11:40:44;7.18;;;6.40;;
12784;SDS011;6456;42.680;23.260;2022-09-09T11:43:12;11.27;;;6.75;;
12784;SDS011;6456;42.680;23.260;2022-09-09T11:45:41;8.02;;;6.80;;
12784;SDS011;6456;42.680;23.260;2022-09-09T11:48:21;11.27;;;6.70;;
12784;SDS011;6456;42.680;23.260;2022-09-09T11:50:56;9.70;;;6.57;;
12784;SDS011;6456;42.680;23.260;2022-09-09T11:53:25;8.77;;;6.68;;
12784;SDS011;6456;42.680;23.260;2022-09-09T11:56:12;10.52;;;7.30;;
12784;SDS011;6456;42.680;23.260;2022-09-09T11:58:44;8.30;;;6.50;;
12784;SDS011;6456;42.680;23.260;2022-09-09T12:01:33;9.05;;;6.63;;
12784;SDS011;6456;42.680;23.260;2022-09-09T12:06:54;7.68;;;6.95;;
12784;SDS011;6456;42.680;23.260;2022-09-09T12:09:28;9.85;;;7.22;;
12784;SDS011;6456;42.680;23.260;2022-09-09T12:12:28;7.97;;;7.00;;
12784;SDS011;6456;42.680;23.260;2022-09-09T12:15:01;6.68;;;5.93;;
12784;SDS011;6456;42.680;23.260;2022-09-09T12:17:46;11.23;;;7.18;;
12784;SDS011;6456;42.680;23.260;2022-09-09T12:20:16;10.98;;;6.55;;
12784;SDS011;6456;42.680;23.260;2022-09-09T12:22:51;13.07;;;6.43;;
12784;SDS011;6456;42.680;23.260;2022-09-09T12:25:33;7.35;;;6.25;;
12784;SDS011;6456;42.680;23.260;2022-09-09T12:28:14;7.63;;;6.47;;
12784;SDS011;6456;42.680;23.260;2022-09-09T12:30:46;11.73;;;7.35;;
12784;SDS011;6456;42.680;23.260;2022-09-09T12:33:22;11.48;;;7.53;;
12784;SDS011;6456;42.680;23.260;2022-09-09T12:35:51;7.32;;;6.50;;
12784;SDS011;6456;42.680;23.260;2022-09-09T12:38:24;9.20;;;6.28;;
12784;SDS011;6456;42.680;23.260;2022-09-09T12:40:58;7.45;;;5.28;;
12784;SDS011;6456;42.680;23.260;2022-09-09T12:43:27;8.50;;;6.25;;
12784;SDS011;6456;42.680;23.260;2022-09-09T12:45:56;8.13;;;6.05;;
12784;SDS011;6456;42.680;23.260;2022-09-09T12:48:31;5.78;;;4.32;;
12784;SDS011;6456;42.680;23.260;2022-09-09T12:51:02;8.43;;;5.25;;
12784;SDS011;6456;42.680;23.260;2022-09-09T12:53:31;7.38;;;5.35;;
12784;SDS011;6456;42.680;23.260;2022-09-09T12:56:02;7.85;;;4.85;;
12784;SDS011;6456;42.680;23.260;2022-09-09T12:58:34;10.48;;;4.93;;
12784;SDS011;6456;42.680;23.260;2022-09-09T13:01:03;7.68;;;5.03;;
12784;SDS011;6456;42.680;23.260;2022-09-09T13:03:31;6.40;;;4.90;;
12784;SDS011;6456;42.680;23.260;2022-09-09T13:06:10;7.95;;;4.97;;
12784;SDS011;6456;42.680;23.260;2022-09-09T13:08:41;5.32;;;4.75;;
12784;SDS011;6456;42.680;23.260;2022-09-09T13:11:10;5.50;;;4.82;;
12784;SDS011;6456;42.680;23.260;2022-09-09T13:13:52;7.63;;;5.10;;
12784;SDS011;6456;42.680;23.260;2022-09-09T13:16:22;9.23;;;5.03;;
12784;SDS011;6456;42.680;23.260;2022-09-09T13:18:51;7.15;;;4.95;;
12784;SDS011;6456;42.680;23.260;2022-09-09T13:21:30;5.38;;;4.63;;
12784;SDS011;6456;42.680;23.260;2022-09-09T13:23:59;6.63;;;5.10;;
12784;SDS011;6456;42.680;23.260;2022-09-09T13:26:28;7.82;;;5.13;;
12784;SDS011;6456;42.680;23.260;2022-09-09T13:29:07;5.35;;;4.63;;
12784;SDS011;6456;42.680;23.260;2022-09-09T13:31:42;9.98;;;5.40;;
12784;SDS011;6456;42.680;23.260;2022-09-09T13:34:10;12.73;;;5.10;;
12784;SDS011;6456;42.680;23.260;2022-09-09T13:36:39;7.00;;;5.03;;
12784;SDS011;6456;42.680;23.260;2022-09-09T13:39:12;9.65;;;5.28;;
12784;SDS011;6456;42.680;23.260;2022-09-09T13:41:42;5.88;;;5.28;;
12784;SDS011;6456;42.680;23.260;2022-09-09T13:44:17;16.25;;;6.00;;
12784;SDS011;6456;42.680;23.260;2022-09-09T13:46:58;9.77;;;6.07;;
12784;SDS011;6456;42.680;23.260;2022-09-09T13:49:27;9.93;;;5.72;;
12784;SDS011;6456;42.680;23.260;2022-09-09T13:52:03;7.88;;;4.95;;
12784;SDS011;6456;42.680;23.260;2022-09-09T13:54:32;15.13;;;8.25;;
12784;SDS011;6456;42.680;23.260;2022-09-09T13:57:00;10.68;;;6.32;;
12784;SDS011;6456;42.680;23.260;2022-09-09T13:59:29;8.10;;;6.50;;
12784;SDS011;6456;42.680;23.260;2022-09-09T14:01:56;8.30;;;6.50;;
12784;SDS011;6456;42.680;23.260;2022-09-09T14:04:24;15.43;;;6.90;;
12784;SDS011;6456;42.680;23.260;2022-09-09T14:06:51;14.13;;;6.60;;
12784;SDS011;6456;42.680;23.260;2022-09-09T14:09:18;9.13;;;6.22;;
12784;SDS011;6456;42.680;23.260;2022-09-09T14:11:45;16.40;;;6.68;;
12784;SDS011;6456;42.680;23.260;2022-09-09T14:14:12;9.85;;;6.40;;
12784;SDS011;6456;42.680;23.260;2022-09-09T14:16:40;10.02;;;6.60;;
12784;SDS011;6456;42.680;23.260;2022-09-09T14:19:07;8.20;;;6.28;;
12784;SDS011;6456;42.680;23.260;2022-09-09T14:21:34;12.15;;;7.05;;
12784;SDS011;6456;42.680;23.260;2022-09-09T14:24:01;8.63;;;6.38;;
12784;SDS011;6456;42.680;23.260;2022-09-09T14:26:28;8.82;;;6.70;;
12784;SDS011;6456;42.680;23.260;2022-09-09T14:28:55;7.88;;;6.70;;
12784;SDS011;6456;42.680;23.260;2022-09-09T14:31:22;10.45;;;6.90;;
12784;SDS011;6456;42.680;23.260;2022-09-09T14:33:51;8.20;;;6.25;;
12784;SDS011;6456;42.680;23.260;2022-09-09T14:36:18;7.53;;;6.32;;
12784;SDS011;6456;42.680;23.260;2022-09-09T14:38:45;12.20;;;6.88;;
12784;SDS011;6456;42.680;23.260;2022-09-09T14:41:12;14.07;;;7.90;;
12784;SDS011;6456;42.680;23.260;2022-09-09T14:43:41;6.70;;;6.00;;
12784;SDS011;6456;42.680;23.260;2022-09-09T14:46:09;10.43;;;6.78;;
12784;SDS011;6456;42.680;23.260;2022-09-09T14:48:37;8.32;;;6.72;;
12784;SDS011;6456;42.680;23.260;2022-09-09T14:51:08;10.05;;;7.72;;
12784;SDS011;6456;42.680;23.260;2022-09-09T14:53:36;12.07;;;6.90;;
12784;SDS011;6456;42.680;23.260;2022-09-09T14:56:04;7.45;;;6.40;;
12784;SDS011;6456;42.680;23.260;2022-09-09T14:58:31;7.95;;;6.90;;
12784;SDS011;6456;42.680;23.260;2022-09-09T15:01:03;8.80;;;6.75;;
12784;SDS011;6456;42.680;23.260;2022-09-09T15:03:31;8.02;;;6.90;;
12784;SDS011;6456;42.680;23.260;2022-09-09T15:06:04;12.43;;;6.78;;
12784;SDS011;6456;42.680;23.260;2022-09-09T15:08:35;10.45;;;6.93;;
12784;SDS011;6456;42.680;23.260;2022-09-09T15:11:04;13.73;;;7.30;;
12784;SDS011;6456;42.680;23.260;2022-09-09T15:13:33;12.57;;;7.00;;
12784;SDS011;6456;42.680;23.260;2022-09-09T15:16:05;10.20;;;6.57;;
12784;SDS011;6456;42.680;23.260;2022-09-09T15:18:34;10.50;;;7.10;;
12784;SDS011;6456;42.680;23.260;2022-09-09T15:21:01;9.02;;;7.30;;